Time;durP1;ratioP1;P1;durP2;ratioP2;P2;SDS_P1;SDS_P2;PMS_P1;PMS_P2;Temp;Humidity;BMP_temperature;BMP_pressure;BME280_temperature;BME280_humidity;BME280_pressure;Samples;Min_cycle;Max_cycle;Signal;HPM_P1;HPM_P2
2022/11/11 06:01:17;;;;;;;16.20;8.10;;;4.20;99.90;;;;;;6049047;23;20017;31
2022/11/11 06:04:02;;;;;;;17.35;8.25;;;4.20;99.90;;;;;;4963927;29;20408;-74
2022/11/11 06:06:47;;;;;;;17.75;8.80;;;4.20;99.90;;;;;;4967544;29;20042;-73
2022/11/11 06:09:31;;;;;;;15.88;8.20;;;4.30;99.90;;;;;;4966321;29;20034;-73
2022/11/11 06:12:16;;;;;;;18.23;8.80;;;4.20;99.90;;;;;;4966757;29;20054;-75
2022/11/11 06:15:00;;;;;;;17.60;8.68;;;4.20;99.90;;;;;;4967161;29;20233;-74
2022/11/11 06:17:44;;;;;;;13.35;7.60;;;4.30;99.90;;;;;;4965583;29;20090;-73
2022/11/11 06:20:29;;;;;;;16.98;8.43;;;4.20;99.90;;;;;;4952417;29;20029;-74
2022/11/11 06:23:13;;;;;;;19.45;8.73;;;4.20;99.90;;;;;;4949924;29;20037;-75
2022/11/11 06:26:12;;;;;;;18.33;8.13;;;4.20;99.90;;;;;;4966995;29;20062;-73
2022/11/11 06:28:57;;;;;;;13.07;6.70;;;4.20;99.90;;;;;;4952575;29;20034;-72
2022/11/11 06:31:42;;;;;;;11.95;6.82;;;4.20;99.90;;;;;;4966327;29;20042;-74
2022/11/11 06:34:26;;;;;;;11.40;6.30;;;4.20;99.90;;;;;;4966081;29;20038;-74
2022/11/11 06:37:10;;;;;;;12.80;6.97;;;4.20;99.90;;;;;;4965732;29;20221;-75
2022/11/11 06:39:56;;;;;;;11.75;7.15;;;4.20;99.90;;;;;;4966800;29;20103;-74
2022/11/11 06:42:41;;;;;;;10.85;7.03;;;4.20;99.90;;;;;;4946958;29;20352;-73
2022/11/11 06:45:27;;;;;;;11.32;7.10;;;4.20;99.90;;;;;;4958029;28;20038;-74
2022/11/11 06:48:11;;;;;;;13.32;6.93;;;4.20;99.90;;;;;;4965870;28;20079;-74
2022/11/11 06:51:04;;;;;;;9.88;6.50;;;4.10;99.90;;;;;;4966907;29;20095;-74
2022/11/11 06:53:49;;;;;;;10.75;7.18;;;4.20;99.90;;;;;;4966802;29;20039;-76
2022/11/11 06:56:33;;;;;;;11.88;6.95;;;4.20;99.90;;;;;;4964825;29;20057;-74
2022/11/11 06:59:18;;;;;;;9.30;7.05;;;4.30;99.90;;;;;;4955561;29;20040;-74
2022/11/11 07:02:03;;;;;;;10.88;6.90;;;4.30;99.90;;;;;;4966081;29;20336;-74
2022/11/11 07:04:47;;;;;;;9.70;6.45;;;4.40;99.90;;;;;;4954234;29;20062;-74
2022/11/11 07:07:31;;;;;;;11.48;7.05;;;4.40;99.90;;;;;;4945418;29;20109;-74
2022/11/11 07:10:16;;;;;;;10.02;6.57;;;4.50;99.90;;;;;;4955811;29;20292;-74
2022/11/11 07:13:01;;;;;;;9.82;7.05;;;4.50;99.90;;;;;;4964880;29;20029;-74
2022/11/11 07:15:45;;;;;;;8.95;6.30;;;4.50;99.90;;;;;;4945756;29;20221;-74
2022/11/11 07:18:30;;;;;;;9.75;6.03;;;4.60;99.90;;;;;;4945071;29;20099;-74
2022/11/11 07:21:14;;;;;;;10.20;6.20;;;4.60;99.90;;;;;;4945609;29;20064;-73
2022/11/11 07:23:58;;;;;;;7.93;6.07;;;4.70;99.90;;;;;;4945502;29;20083;-75
2022/11/11 07:26:43;;;;;;;9.73;6.45;;;4.80;99.90;;;;;;4953833;29;20070;-75
2022/11/11 07:29:28;;;;;;;9.38;6.25;;;4.90;99.90;;;;;;4953337;29;20026;-73
2022/11/11 07:32:12;;;;;;;10.88;6.10;;;5.00;99.90;;;;;;4934527;29;20126;-74
2022/11/11 07:34:57;;;;;;;9.60;6.32;;;5.20;99.90;;;;;;4964371;29;20244;-73
2022/11/11 07:37:41;;;;;;;16.92;10.43;;;5.20;99.90;;;;;;4963954;29;20066;-73
2022/11/11 07:40:26;;;;;;;10.90;6.88;;;5.20;99.90;;;;;;4964078;29;20030;-74
2022/11/11 07:43:10;;;;;;;16.58;10.73;;;5.30;99.90;;;;;;4964315;29;20074;-75
2022/11/11 07:45:54;;;;;;;9.82;6.50;;;5.40;99.90;;;;;;4954075;29;20034;-73
2022/11/11 07:48:39;;;;;;;7.90;5.47;;;5.50;99.90;;;;;;4944690;29;20031;-74
2022/11/11 07:51:23;;;;;;;7.93;5.15;;;5.60;99.90;;;;;;4947207;29;20065;-73
2022/11/11 07:54:07;;;;;;;7.28;4.80;;;5.50;99.90;;;;;;4945158;29;20058;-74
2022/11/11 07:56:52;;;;;;;7.85;5.00;;;5.60;99.90;;;;;;4944971;29;20062;-73
2022/11/11 07:59:36;;;;;;;6.95;5.32;;;5.60;99.90;;;;;;4944122;29;20083;-72
2022/11/11 08:02:20;;;;;;;9.43;5.90;;;5.70;99.90;;;;;;4943785;29;20071;-74
2022/11/11 08:05:05;;;;;;;8.45;5.38;;;5.60;99.90;;;;;;4949930;29;20053;-73
2022/11/11 08:07:49;;;;;;;7.95;5.57;;;5.80;99.90;;;;;;4963799;29;20363;-72
2022/11/11 08:10:35;;;;;;;9.60;5.20;;;5.80;99.90;;;;;;4962951;29;20382;-73
2022/11/11 08:16:23;;;;;;;7.47;5.00;;;5.90;99.90;;;;;;4963043;29;20034;-75
2022/11/11 08:19:07;;;;;;;8.93;4.72;;;5.80;99.90;;;;;;4963448;29;20041;-74
2022/11/11 08:21:52;;;;;;;8.27;5.30;;;5.90;99.90;;;;;;4963424;29;20022;-75
2022/11/11 08:24:36;;;;;;;7.57;4.85;;;6.10;99.90;;;;;;4962917;29;20057;-73
2022/11/11 08:27:20;;;;;;;8.18;4.97;;;6.20;99.90;;;;;;4963507;29;20030;-76
2022/11/11 08:30:06;;;;;;;9.02;5.13;;;6.20;99.90;;;;;;4963387;29;20058;-72
2022/11/11 08:33:05;;;;;;;9.85;5.47;;;6.30;99.90;;;;;;4963449;29;20039;-75
2022/11/11 08:35:53;;;;;;;8.82;4.97;;;6.30;99.90;;;;;;4962520;29;20077;-74
2022/11/11 08:38:38;;;;;;;9.75;6.22;;;6.40;99.90;;;;;;4962837;29;20068;-72
2022/11/11 08:41:23;;;;;;;7.93;5.50;;;6.50;99.90;;;;;;4962911;29;20348;-76
2022/11/11 08:44:08;;;;;;;26.50;16.40;;;6.50;99.90;;;;;;4963031;29;20030;-72
2022/11/11 08:46:53;;;;;;;11.38;6.93;;;6.60;99.90;;;;;;4963062;29;20038;-74
2022/11/11 08:49:37;;;;;;;9.43;5.97;;;6.60;99.90;;;;;;4962531;29;20078;-73
2022/11/11 08:52:21;;;;;;;8.00;5.32;;;6.70;99.90;;;;;;4963095;29;20069;-73
2022/11/11 08:55:06;;;;;;;8.93;5.57;;;6.80;99.90;;;;;;4962657;29;20070;-74
2022/11/11 08:58:02;;;;;;;7.15;5.00;;;6.90;99.90;;;;;;4963146;29;20045;-72
2022/11/11 09:00:46;;;;;;;8.43;5.72;;;7.00;99.90;;;;;;4962458;29;20074;-73
2022/11/11 09:03:31;;;;;;;8.63;5.55;;;7.10;99.90;;;;;;4947570;29;20055;-73
2022/11/11 09:06:15;;;;;;;7.15;5.30;;;7.20;99.90;;;;;;4962948;29;20099;-73
2022/11/11 09:09:00;;;;;;;10.43;5.50;;;7.30;99.90;;;;;;4962878;29;20310;-73
2022/11/11 09:11:44;;;;;;;8.27;5.75;;;7.40;99.90;;;;;;4953607;28;20166;-73
2022/11/11 09:14:29;;;;;;;10.45;5.00;;;7.50;99.90;;;;;;4962276;29;20034;-73
2022/11/11 09:17:13;;;;;;;9.23;5.13;;;7.60;99.90;;;;;;4962546;29;20078;-71
2022/11/11 09:19:57;;;;;;;11.40;5.55;;;7.60;99.90;;;;;;4943592;29;20043;-74
2022/11/11 09:22:42;;;;;;;7.50;4.90;;;7.70;99.90;;;;;;4940712;29;20050;-71
2022/11/11 09:25:27;;;;;;;7.85;5.55;;;7.80;99.90;;;;;;4962098;29;20058;-72
2022/11/11 09:28:12;;;;;;;10.93;5.32;;;7.90;99.90;;;;;;4963758;29;20099;-75
2022/11/11 09:31:01;;;;;;;10.68;5.60;;;7.90;99.90;;;;;;4962627;29;20212;-72
2022/11/11 09:33:45;;;;;;;9.70;5.63;;;7.90;99.90;;;;;;4962024;29;20352;-73
2022/11/11 09:36:30;;;;;;;7.55;5.32;;;8.10;99.90;;;;;;4947410;29;20058;-73
2022/11/11 09:39:15;;;;;;;8.82;5.40;;;8.20;99.90;;;;;;4962821;29;20453;-76
2022/11/11 09:42:12;;;;;;;9.38;5.72;;;8.30;99.90;;;;;;4963064;29;20042;-71
2022/11/11 09:45:14;;;;;;;10.35;5.75;;;8.40;99.90;;;;;;4963919;29;20042;-72
2022/11/11 09:48:30;;;;;;;8.60;5.28;;;8.60;99.90;;;;;;4963199;29;20030;-74
2022/11/11 09:51:47;;;;;;;9.02;5.20;;;8.80;99.90;;;;;;4957193;29;20087;-72
2022/11/11 09:54:38;;;;;;;8.87;5.33;;;8.90;99.90;;;;;;4940806;29;20102;-72
2022/11/11 09:57:37;;;;;;;9.38;5.00;;;9.00;99.90;;;;;;4961518;29;20060;-72
2022/11/11 10:00:34;;;;;;;7.43;5.32;;;9.30;99.90;;;;;;4964162;29;20342;-74
2022/11/11 10:03:21;;;;;;;6.53;4.65;;;9.40;99.90;;;;;;4964690;29;20062;-73
2022/11/11 10:06:22;;;;;;;8.50;4.90;;;9.60;99.90;;;;;;4964198;29;20035;-71
2022/11/11 10:09:19;;;;;;;8.10;5.05;;;9.80;99.90;;;;;;4945098;29;20036;-71
2022/11/11 10:12:14;;;;;;;6.60;4.70;;;10.00;99.90;;;;;;4964887;28;20031;-72
2022/11/11 10:15:00;;;;;;;8.48;5.28;;;10.20;99.90;;;;;;4964164;29;20130;-72
2022/11/11 10:18:17;;;;;;;9.40;5.15;;;10.30;99.90;;;;;;4962080;29;20217;-72
2022/11/11 10:21:10;;;;;;;8.15;5.05;;;10.40;99.90;;;;;;4962011;28;20335;-73
2022/11/11 10:24:00;;;;;;;8.57;5.13;;;10.60;99.90;;;;;;4965799;29;20058;-75
2022/11/11 10:26:46;;;;;;;10.88;5.43;;;10.80;99.90;;;;;;4965588;29;20106;-74
2022/11/11 10:29:44;;;;;;;10.85;5.45;;;11.00;99.90;;;;;;4965180;29;20075;-73
2022/11/11 10:32:33;;;;;;;9.85;4.90;;;11.20;99.90;;;;;;4965177;29;20067;-75
2022/11/11 10:35:24;;;;;;;9.68;4.93;;;11.60;99.90;;;;;;4965608;29;20260;-73
2022/11/11 10:38:31;;;;;;;7.57;4.80;;;11.70;99.90;;;;;;4965575;29;20108;-71
2022/11/11 10:41:22;;;;;;;7.82;4.88;;;11.90;99.90;;;;;;4965448;29;20384;-75
2022/11/11 10:44:26;;;;;;;8.20;4.47;;;12.30;99.90;;;;;;4965500;29;20059;-72
2022/11/11 10:47:31;;;;;;;8.88;4.45;;;12.80;99.90;;;;;;4965416;29;20098;-72
2022/11/11 10:50:29;;;;;;;5.22;3.97;;;13.10;99.90;;;;;;4964291;29;20037;-72
2022/11/11 10:53:29;;;;;;;7.18;4.40;;;13.40;99.90;;;;;;4965218;29;20077;-73
2022/11/11 10:56:28;;;;;;;7.25;4.40;;;13.80;99.90;;;;;;4965374;29;20123;-72
2022/11/11 10:59:28;;;;;;;7.32;4.65;;;14.10;99.90;;;;;;4965239;29;20046;-72
2022/11/11 11:02:20;;;;;;;7.95;4.28;;;14.10;99.90;;;;;;4965109;29;20054;-70
2022/11/11 11:05:12;;;;;;;7.70;3.90;;;14.40;99.90;;;;;;4965136;29;20074;-74
2022/11/11 11:08:04;;;;;;;8.15;4.10;;;14.90;99.90;;;;;;4965052;29;20038;-72
2022/11/11 11:11:26;;;;;;;8.73;3.67;;;15.30;99.90;;;;;;4964706;29;20327;-73
2022/11/11 11:14:29;;;;;;;6.93;4.00;;;16.00;99.90;;;;;;4959343;29;20034;-72
2022/11/11 11:17:23;;;;;;;7.53;3.95;;;16.30;99.90;;;;;;4964829;29;20061;-72
2022/11/11 11:20:19;;;;;;;7.25;4.30;;;16.50;99.50;;;;;;4945831;29;20230;-73
2022/11/11 11:23:04;;;;;;;6.63;3.92;;;16.90;98.60;;;;;;4945592;29;20054;-75
2022/11/11 11:25:55;;;;;;;7.03;4.03;;;16.90;98.20;;;;;;4945103;29;20082;-74
2022/11/11 11:29:04;;;;;;;9.20;4.32;;;16.70;98.50;;;;;;4945051;29;20070;-73
2022/11/11 11:31:48;;;;;;;5.78;3.60;;;16.70;98.40;;;;;;4943972;29;20039;-74
2022/11/11 11:34:46;;;;;;;7.10;4.35;;;16.60;98.30;;;;;;4944533;29;20258;-74
2022/11/11 11:37:30;;;;;;;7.38;4.15;;;17.00;97.80;;;;;;4945152;29;20086;-74
2022/11/11 11:40:15;;;;;;;6.30;3.80;;;17.30;97.30;;;;;;4945335;29;20035;-72
2022/11/11 11:42:59;;;;;;;6.88;4.20;;;17.70;96.70;;;;;;4945147;29;20075;-75
2022/11/11 11:45:58;;;;;;;6.82;4.50;;;17.80;96.20;;;;;;4944630;29;20048;-74
2022/11/11 11:49:06;;;;;;;8.73;4.20;;;18.00;95.80;;;;;;4944480;29;20035;-72
2022/11/11 11:52:02;;;;;;;6.80;4.00;;;18.50;95.20;;;;;;4944588;29;20087;-74
2022/11/11 11:55:05;;;;;;;6.20;3.95;;;18.30;95.00;;;;;;4944241;29;20407;-71
2022/11/11 11:58:10;;;;;;;6.28;4.07;;;18.40;95.60;;;;;;4944250;29;20078;-73
2022/11/11 12:01:03;;;;;;;5.32;3.88;;;18.70;95.10;;;;;;4944021;29;20340;-74
2022/11/11 12:04:18;;;;;;;7.50;4.18;;;19.40;94.00;;;;;;4944080;29;20136;-73
2022/11/11 12:07:25;;;;;;;6.43;4.05;;;20.30;92.90;;;;;;4963636;29;20070;-72
2022/11/11 12:10:41;;;;;;;8.93;4.47;;;20.40;91.90;;;;;;4963446;29;20030;-73
2022/11/11 12:13:42;;;;;;;8.10;4.07;;;20.70;91.20;;;;;;4959376;28;20045;-73
2022/11/11 12:16:55;;;;;;;7.55;4.35;;;21.00;91.30;;;;;;4963359;29;20213;-74
2022/11/11 12:19:43;;;;;;;9.10;4.43;;;21.80;89.30;;;;;;4963245;29;20082;-73
2022/11/11 12:22:35;;;;;;;5.67;4.03;;;22.70;87.40;;;;;;4963615;29;20090;-74
2022/11/11 12:25:34;;;;;;;6.38;4.13;;;22.80;85.20;;;;;;4963478;29;20042;-73
2022/11/11 12:28:31;;;;;;;6.80;3.90;;;22.80;85.10;;;;;;4961142;29;20220;-74
2022/11/11 12:31:29;;;;;;;6.47;4.15;;;22.80;84.00;;;;;;4944169;29;20083;-73
2022/11/11 12:34:40;;;;;;;6.10;4.20;;;22.30;84.60;;;;;;4943970;29;20039;-73
2022/11/11 12:37:40;;;;;;;7.00;4.47;;;21.00;87.20;;;;;;4931168;29;20046;-72
2022/11/11 12:40:24;;;;;;;7.20;4.30;;;20.10;89.60;;;;;;4944007;29;20217;-73
2022/11/11 12:43:31;;;;;;;13.70;4.43;;;19.90;90.30;;;;;;4944253;29;20106;-74
2022/11/11 12:46:40;;;;;;;7.43;4.40;;;20.10;90.50;;;;;;4943226;29;20086;-74
2022/11/11 12:49:36;;;;;;;6.32;3.30;;;20.00;90.10;;;;;;4944049;29;20052;-73
2022/11/11 12:52:41;;;;;;;8.05;3.90;;;20.20;90.20;;;;;;4943781;29;20075;-72
2022/11/11 12:55:37;;;;;;;6.97;3.80;;;20.40;89.20;;;;;;4943638;29;20082;-73
2022/11/11 12:58:37;;;;;;;7.35;3.60;;;20.50;88.90;;;;;;4943705;29;20034;-72
2022/11/11 13:01:37;;;;;;;6.90;4.38;;;20.30;89.50;;;;;;4956584;29;20213;-73
2022/11/11 13:04:45;;;;;;;12.50;7.38;;;20.20;88.90;;;;;;4962981;29;20046;-73
2022/11/11 13:07:32;;;;;;;7.60;3.63;;;20.10;88.80;;;;;;4943938;29;20034;-72
2022/11/11 13:10:45;;;;;;;7.75;3.20;;;19.20;90.30;;;;;;4939052;29;20354;-72
2022/11/11 13:13:38;;;;;;;6.85;2.97;;;18.80;91.10;;;;;;4961798;28;20042;-71
2022/11/11 13:16:24;;;;;;;6.72;3.00;;;18.40;91.50;;;;;;4959428;28;20071;-72
2022/11/11 13:19:35;;;;;;;5.85;2.72;;;18.40;91.70;;;;;;4962472;29;20082;-71
2022/11/11 13:22:22;;;;;;;8.32;2.72;;;18.60;91.60;;;;;;4943434;29;20034;-73
2022/11/11 13:25:13;;;;;;;5.75;2.60;;;18.80;91.60;;;;;;4953807;29;20107;-72
2022/11/11 13:28:12;;;;;;;20.00;13.18;;;19.60;91.00;;;;;;4962294;29;20058;-73
2022/11/11 13:31:34;;;;;;;4.63;2.83;;;20.20;89.50;;;;;;4960077;29;20055;-73
2022/11/11 13:34:20;;;;;;;4.30;2.35;;;20.40;88.60;;;;;;4962487;29;20059;-72
2022/11/11 13:37:09;;;;;;;5.13;2.55;;;20.40;87.40;;;;;;4962446;29;20136;-72
2022/11/11 13:39:59;;;;;;;4.20;2.00;;;20.30;87.30;;;;;;4962047;29;20077;-72
2022/11/11 13:42:51;;;;;;;5.55;2.72;;;20.40;88.90;;;;;;4961840;29;20038;-71
2022/11/11 13:45:42;;;;;;;6.40;2.92;;;20.30;88.50;;;;;;4962415;29;20035;-71
2022/11/11 13:48:35;;;;;;;10.45;2.65;;;20.10;88.00;;;;;;4958298;29;20029;-72
2022/11/11 13:51:42;;;;;;;5.43;2.28;;;19.70;88.10;;;;;;4962315;29;20106;-71
2022/11/11 13:54:32;;;;;;;7.05;3.33;;;19.40;89.00;;;;;;4962465;29;20091;-71
2022/11/11 13:57:22;;;;;;;5.35;3.60;;;19.10;89.10;;;;;;4964397;28;20050;-72
2022/11/11 14:00:16;;;;;;;4.28;2.30;;;19.60;90.20;;;;;;4966056;29;20034;-72
2022/11/11 14:03:21;;;;;;;3.47;2.20;;;20.00;88.80;;;;;;4961652;29;20228;-72
2022/11/11 14:06:14;;;;;;;4.47;2.50;;;20.30;88.80;;;;;;4965995;29;20101;-73
2022/11/11 14:08:58;;;;;;;4.72;2.30;;;20.20;89.70;;;;;;4965555;29;20256;-74
2022/11/11 14:11:43;;;;;;;6.28;2.53;;;20.10;87.00;;;;;;4946264;29;20030;-72
2022/11/11 14:14:33;;;;;;;4.55;1.98;;;20.20;86.60;;;;;;4946533;29;20078;-71
2022/11/11 14:17:18;;;;;;;7.15;3.17;;;20.10;85.90;;;;;;4946829;29;20043;-72
2022/11/11 14:20:38;;;;;;;4.63;2.60;;;19.90;86.60;;;;;;4965081;29;20099;-73
2022/11/11 14:23:51;;;;;;;5.85;2.72;;;19.90;88.00;;;;;;4965912;29;20065;-73
2022/11/11 14:26:36;;;;;;;6.82;3.90;;;19.90;87.60;;;;;;4946653;29;20090;-71
2022/11/11 14:29:27;;;;;;;6.28;2.60;;;19.70;89.00;;;;;;4946713;29;20034;-73
2022/11/11 14:32:31;;;;;;;7.75;2.75;;;19.90;88.40;;;;;;4946558;29;20377;-70
2022/11/11 14:35:30;;;;;;;6.68;2.70;;;19.90;88.20;;;;;;4951063;29;20070;-73
2022/11/11 14:38:39;;;;;;;6.47;2.28;;;20.10;87.10;;;;;;4946199;29;20034;-71
2022/11/11 14:41:44;;;;;;;6.95;2.63;;;20.20;89.70;;;;;;4946058;29;20049;-73
2022/11/11 14:44:31;;;;;;;6.10;2.97;;;20.50;88.20;;;;;;4945848;29;20034;-71
2022/11/11 14:47:15;;;;;;;8.63;3.13;;;20.10;87.40;;;;;;4945841;29;20103;-72
2022/11/11 14:49:59;;;;;;;5.60;3.05;;;19.50;89.60;;;;;;4950426;29;20085;-71
2022/11/11 14:52:45;;;;;;;5.55;3.00;;;19.10;90.30;;;;;;4964528;29;20086;-73
2022/11/11 14:55:38;;;;;;;5.68;2.90;;;18.80;92.00;;;;;;4965084;29;20233;-73
2022/11/11 14:58:33;;;;;;;6.15;2.65;;;18.60;91.20;;;;;;4964717;28;20075;-79
2022/11/11 15:01:20;;;;;;;7.70;3.42;;;18.40;91.40;;;;;;4964960;29;20268;-74
2022/11/11 15:04:05;;;;;;;6.13;2.85;;;17.90;92.00;;;;;;4964507;29;20086;-76
2022/11/11 15:07:00;;;;;;;8.50;3.25;;;17.70;93.10;;;;;;4960538;29;20042;-75
2022/11/11 15:10:05;;;;;;;7.72;3.20;;;17.30;92.90;;;;;;4960418;28;20062;-76
2022/11/11 15:13:23;;;;;;;5.60;2.67;;;17.00;93.70;;;;;;4962248;28;20087;-77
2022/11/11 15:16:45;;;;;;;5.28;2.97;;;16.70;94.10;;;;;;4950541;29;20225;-76
2022/11/11 15:19:49;;;;;;;6.35;3.28;;;16.30;94.90;;;;;;4950247;29;20070;-75
2022/11/11 15:22:42;;;;;;;9.65;4.20;;;15.90;95.40;;;;;;4960738;29;20066;-76
2022/11/11 15:25:51;;;;;;;10.15;5.00;;;15.50;96.10;;;;;;4964767;29;20066;-74
2022/11/11 15:28:47;;;;;;;7.10;3.72;;;15.10;96.90;;;;;;4964895;29;20082;-75
2022/11/11 15:31:41;;;;;;;9.35;3.55;;;14.80;98.50;;;;;;4964683;29;20408;-73
2022/11/11 15:34:39;;;;;;;9.02;3.95;;;14.50;99.90;;;;;;4964642;29;20074;-74
2022/11/11 15:37:26;;;;;;;10.25;4.47;;;14.20;99.90;;;;;;4949498;29;20094;-73
2022/11/11 15:40:30;;;;;;;8.00;4.55;;;13.90;99.90;;;;;;4949872;29;20026;-74
2022/11/11 15:43:26;;;;;;;7.93;4.22;;;13.60;99.90;;;;;;4964524;29;20045;-73
2022/11/11 15:46:24;;;;;;;12.13;5.00;;;13.40;99.90;;;;;;4964532;29;20099;-72
2022/11/11 15:49:13;;;;;;;;;;;13.10;99.90;;;;;;4965004;29;20225;-73
2022/11/11 15:51:57;;;;;;;11.05;4.70;;;12.90;99.90;;;;;;4961520;29;20266;-73
2022/11/11 15:54:42;;;;;;;21.73;10.80;;;12.80;99.90;;;;;;4944605;29;20071;-74
2022/11/11 15:57:32;;;;;;;50.78;22.15;;;12.60;99.90;;;;;;4945022;29;20051;-71
2022/11/11 16:00:22;;;;;;;32.05;15.18;;;12.40;99.90;;;;;;4945041;29;20059;-73
2022/11/11 16:03:32;;;;;;;19.33;10.77;;;12.20;99.90;;;;;;4944510;29;20075;-72
2022/11/11 16:06:17;;;;;;;13.52;7.25;;;12.10;99.90;;;;;;4959831;29;20042;-73
2022/11/11 16:09:02;;;;;;;10.95;4.95;;;11.90;99.90;;;;;;4959202;29;20217;-73
2022/11/11 16:11:46;;;;;;;7.95;4.45;;;11.80;99.90;;;;;;4944151;29;20038;-72
2022/11/11 16:14:43;;;;;;;15.77;5.40;;;11.70;99.90;;;;;;4944622;29;20039;-76
2022/11/11 16:17:40;;;;;;;12.60;5.70;;;11.60;99.90;;;;;;4946246;29;20091;-74
2022/11/11 16:20:29;;;;;;;12.05;5.47;;;11.40;99.90;;;;;;4963783;28;20095;-73
2022/11/11 16:23:17;;;;;;;17.88;8.93;;;11.30;99.90;;;;;;4962940;29;20023;-76
2022/11/11 16:26:03;;;;;;;24.75;12.48;;;11.30;99.90;;;;;;4962966;29;20053;-74
2022/11/11 16:28:53;;;;;;;22.70;12.32;;;11.10;99.90;;;;;;4963070;29;20034;-73
2022/11/11 16:31:40;;;;;;;13.63;8.50;;;11.00;99.90;;;;;;4963690;29;20063;-73
2022/11/11 16:34:28;;;;;;;10.68;5.93;;;10.90;99.90;;;;;;4963745;29;20359;-73
2022/11/11 16:37:17;;;;;;;13.30;7.07;;;10.70;99.90;;;;;;4963613;29;20070;-75
2022/11/11 16:40:26;;;;;;;11.88;7.03;;;10.70;99.90;;;;;;4959482;29;20379;-73
2022/11/11 16:43:16;;;;;;;10.90;6.28;;;10.70;99.90;;;;;;4963216;29;20253;-74
2022/11/11 16:46:07;;;;;;;11.55;7.45;;;10.60;99.90;;;;;;4962785;29;20234;-73
2022/11/11 16:48:52;;;;;;;11.20;6.90;;;10.50;99.90;;;;;;4962572;29;20157;-74
2022/11/11 16:51:43;;;;;;;12.00;6.80;;;10.40;99.90;;;;;;4963198;29;20042;-74
2022/11/11 16:54:30;;;;;;;18.98;12.65;;;10.30;99.90;;;;;;4961945;29;20041;-72
2022/11/11 16:57:18;;;;;;;17.95;10.32;;;10.20;99.90;;;;;;4962433;29;20330;-71
2022/11/11 17:00:04;;;;;;;13.32;7.15;;;10.10;99.90;;;;;;4962492;29;20038;-73
2022/11/11 17:03:11;;;;;;;14.48;8.18;;;10.10;99.90;;;;;;4942025;29;20062;-74
2022/11/11 17:06:07;;;;;;;13.50;8.90;;;10.00;99.90;;;;;;4943119;29;20035;-72
2022/11/11 17:08:55;;;;;;;16.77;11.10;;;9.90;99.90;;;;;;4943313;29;20057;-75
2022/11/11 17:11:52;;;;;;;20.48;12.27;;;9.80;99.90;;;;;;4939596;29;20071;-72
2022/11/11 17:14:38;;;;;;;17.35;10.57;;;9.70;99.90;;;;;;4924583;29;20027;-73
2022/11/11 17:17:22;;;;;;;14.00;6.85;;;9.70;99.90;;;;;;4925549;29;20191;-72
2022/11/11 17:20:12;;;;;;;15.05;6.47;;;9.60;99.90;;;;;;4942231;29;20042;-72
2022/11/11 17:22:57;;;;;;;11.93;6.30;;;9.60;99.90;;;;;;4943040;29;20046;-71
2022/11/11 17:25:41;;;;;;;12.02;6.88;;;9.60;99.90;;;;;;4943187;29;20066;-72
2022/11/11 17:28:32;;;;;;;12.50;7.32;;;9.50;99.90;;;;;;4953377;29;20075;-73
2022/11/11 17:31:16;;;;;;;15.25;6.97;;;9.50;99.90;;;;;;4942762;29;20143;-73
2022/11/11 17:34:06;;;;;;;12.50;6.70;;;9.40;99.90;;;;;;4942918;29;20210;-72
2022/11/11 17:36:50;;;;;;;13.43;7.13;;;9.40;99.90;;;;;;4943060;29;20051;-72
2022/11/11 17:39:34;;;;;;;15.20;7.25;;;9.30;99.90;;;;;;4943485;29;20038;-73
2022/11/11 17:42:18;;;;;;;14.80;8.27;;;9.30;99.90;;;;;;4939302;29;20506;-73
2022/11/11 17:45:04;;;;;;;14.80;8.90;;;9.30;99.90;;;;;;4941895;29;20247;-73
2022/11/11 17:47:48;;;;;;;15.77;7.32;;;9.20;99.90;;;;;;4943329;29;20095;-76
2022/11/11 17:50:34;;;;;;;12.30;7.68;;;9.10;99.90;;;;;;4943372;29;20336;-74
2022/11/11 17:53:18;;;;;;;14.82;7.90;;;9.00;99.90;;;;;;4943308;29;20104;-72
2022/11/11 17:56:04;;;;;;;14.95;8.35;;;9.00;99.90;;;;;;4942718;29;20054;-72
2022/11/11 17:58:48;;;;;;;16.08;9.25;;;8.90;99.90;;;;;;4939115;29;20042;-71
2022/11/11 18:01:33;;;;;;;16.90;9.50;;;8.90;99.90;;;;;;4944739;29;20082;-72
2022/11/11 18:04:17;;;;;;;17.00;9.52;;;8.80;99.90;;;;;;4962492;29;20038;-72
2022/11/11 18:07:01;;;;;;;16.48;9.10;;;8.70;99.90;;;;;;4961825;29;20042;-71
2022/11/11 18:09:49;;;;;;;18.70;11.13;;;8.60;99.90;;;;;;4962402;29;20046;-71
2022/11/11 18:12:35;;;;;;;16.27;9.77;;;8.50;99.90;;;;;;4947499;29;20049;-72
2022/11/11 18:15:20;;;;;;;14.90;9.57;;;8.40;99.90;;;;;;4945107;29;20070;-73
2022/11/11 18:18:05;;;;;;;17.10;9.80;;;8.40;99.90;;;;;;4949492;29;20054;-74
2022/11/11 18:20:50;;;;;;;16.45;9.52;;;8.30;99.90;;;;;;4962555;29;20082;-75
2022/11/11 18:23:37;;;;;;;18.98;10.40;;;8.30;99.90;;;;;;4962288;29;20033;-73
2022/11/11 18:26:21;;;;;;;18.27;11.18;;;8.30;99.90;;;;;;4962181;29;20075;-74
2022/11/11 18:29:07;;;;;;;19.58;10.80;;;8.30;99.90;;;;;;4957808;29;20039;-74
2022/11/11 18:31:51;;;;;;;19.73;11.65;;;8.20;99.90;;;;;;4961939;29;20050;-74
2022/11/11 18:34:39;;;;;;;21.33;11.90;;;8.20;99.90;;;;;;4962158;29;20154;-74
2022/11/11 18:37:23;;;;;;;23.98;13.95;;;8.10;99.90;;;;;;4962197;29;20232;-74
2022/11/11 18:40:08;;;;;;;26.48;14.55;;;8.10;99.90;;;;;;4961364;29;20034;-74
2022/11/11 18:42:52;;;;;;;20.27;12.05;;;8.10;99.90;;;;;;4961648;28;20046;-73
2022/11/11 18:45:37;;;;;;;17.20;11.65;;;8.10;99.90;;;;;;4961256;29;20042;-71
2022/11/11 18:48:21;;;;;;;26.88;14.57;;;8.10;99.90;;;;;;4965462;29;20093;-72
2022/11/11 18:51:07;;;;;;;29.58;15.90;;;8.10;99.90;;;;;;4964828;29;20061;-73
2022/11/11 18:53:51;;;;;;;23.48;14.10;;;8.10;99.90;;;;;;4965139;29;20340;-73
2022/11/11 18:56:42;;;;;;;27.75;13.95;;;8.10;99.90;;;;;;4965190;29;20037;-72
2022/11/11 18:59:27;;;;;;;25.30;14.50;;;8.10;99.90;;;;;;4964386;29;20033;-71
2022/11/11 19:02:11;;;;;;;26.42;14.77;;;8.10;99.90;;;;;;4947892;29;20054;-74
2022/11/11 19:04:59;;;;;;;30.08;17.00;;;8.00;99.90;;;;;;4949410;29;20054;-73
2022/11/11 19:07:47;;;;;;;28.25;16.02;;;7.90;99.90;;;;;;4964975;29;20033;-73
2022/11/11 19:10:31;;;;;;;;;;;7.80;99.90;;;;;;4965362;29;20057;-73
2022/11/11 19:13:19;;;;;;;24.23;15.23;;;7.80;99.90;;;;;;4964541;28;19953;-75
2022/11/11 19:16:13;;;;;;;22.85;14.60;;;7.80;99.90;;;;;;4949347;29;20097;-74
2022/11/11 19:18:58;;;;;;;28.50;17.02;;;7.80;99.90;;;;;;4963205;29;20094;-73
2022/11/11 19:21:42;;;;;;;28.63;16.58;;;7.80;99.90;;;;;;4964925;29;20135;-72
2022/11/11 19:24:27;;;;;;;26.25;15.38;;;7.80;99.90;;;;;;4957659;29;20348;-72
2022/11/11 19:27:11;;;;;;;23.20;14.60;;;7.80;99.90;;;;;;4952756;29;20034;-72
2022/11/11 19:29:56;;;;;;;23.83;14.10;;;7.80;99.90;;;;;;4945097;29;20064;-72
2022/11/11 19:32:41;;;;;;;24.65;15.13;;;7.70;99.90;;;;;;4956002;29;20110;-73
2022/11/11 19:35:25;;;;;;;22.88;13.82;;;7.70;99.90;;;;;;4964520;29;20077;-75
2022/11/11 19:38:10;;;;;;;27.08;15.23;;;7.70;99.90;;;;;;4964103;29;20038;-73
2022/11/11 19:40:55;;;;;;;24.35;14.70;;;7.60;99.90;;;;;;4964498;29;20082;-72
2022/11/11 19:43:44;;;;;;;21.42;14.15;;;7.60;99.90;;;;;;4964278;29;20188;-73
2022/11/11 19:46:30;;;;;;;25.45;15.07;;;7.50;99.90;;;;;;4964228;29;20074;-76
2022/11/11 19:49:15;;;;;;;24.25;13.65;;;7.50;99.90;;;;;;4946683;29;20361;-72
2022/11/11 19:52:00;;;;;;;23.50;13.50;;;7.50;99.90;;;;;;4944440;29;20034;-72
2022/11/11 19:54:43;;;;;;;24.70;13.88;;;7.60;99.90;;;;;;4944794;29;20060;-72
2022/11/11 19:57:28;;;;;;;23.40;14.38;;;7.50;99.90;;;;;;4944984;29;20308;-72
2022/11/11 20:00:12;;;;;;;22.90;13.93;;;7.60;99.90;;;;;;4944556;29;20101;-74
2022/11/11 20:02:56;;;;;;;20.80;12.40;;;7.50;99.90;;;;;;4946944;29;20178;-72
2022/11/11 20:05:41;;;;;;;23.50;12.15;;;7.50;99.90;;;;;;4962846;29;20051;-73
2022/11/11 20:08:25;;;;;;;20.35;11.65;;;7.40;99.90;;;;;;4964201;29;20034;-72
2022/11/11 20:11:10;;;;;;;20.45;12.27;;;7.40;99.90;;;;;;4948937;29;20093;-72
2022/11/11 20:13:54;;;;;;;23.05;13.00;;;7.40;99.90;;;;;;4963946;28;20137;-74
2022/11/11 20:16:39;;;;;;;19.33;12.07;;;7.40;99.90;;;;;;4963814;29;20356;-73
2022/11/11 20:19:23;;;;;;;24.02;13.27;;;7.40;99.90;;;;;;4963664;29;20064;-72
2022/11/11 20:22:10;;;;;;;22.48;13.15;;;7.30;99.90;;;;;;4960819;29;20135;-73
2022/11/11 20:24:54;;;;;;;24.67;14.43;;;7.20;99.90;;;;;;4944709;29;20043;-73
2022/11/11 20:27:46;;;;;;;23.10;14.02;;;7.20;99.90;;;;;;4930023;29;20026;-73
2022/11/11 20:30:34;;;;;;;23.80;15.02;;;7.20;99.90;;;;;;4944755;29;20120;-74
2022/11/11 20:33:19;;;;;;;25.75;14.88;;;7.20;99.90;;;;;;4944277;29;20034;-72
2022/11/11 20:36:06;;;;;;;26.83;15.18;;;7.20;99.90;;;;;;4944216;29;20046;-73
2022/11/11 20:38:51;;;;;;;25.92;14.75;;;7.20;99.90;;;;;;4944576;29;20069;-73
2022/11/11 20:41:35;;;;;;;21.90;15.05;;;7.20;99.90;;;;;;4944455;29;20075;-73
2022/11/11 20:44:20;;;;;;;22.95;14.30;;;7.20;99.90;;;;;;4943784;29;20096;-74
2022/11/11 20:47:04;;;;;;;23.67;15.20;;;7.10;99.90;;;;;;4943953;29;20082;-73
2022/11/11 20:49:49;;;;;;;21.27;15.07;;;7.00;99.90;;;;;;4944345;29;20103;-76